createdAt,value
2022-10-17T00:00:13.365Z,101754.63
2022-10-17T00:02:40.242Z,101749.97
2022-10-17T00:05:07.395Z,101735.81
2022-10-17T00:07:34.328Z,101731.34
2022-10-17T00:10:02.552Z,101731.13
2022-10-17T00:12:29.303Z,101731.34
2022-10-17T00:14:56.080Z,101735.75
2022-10-17T00:17:22.869Z,101740.50
2022-10-17T00:19:49.938Z,101742.22
2022-10-17T00:22:16.767Z,101742.22
2022-10-17T00:24:43.548Z,101748.53
2022-10-17T00:27:11.731Z,101737.63
2022-10-17T00:29:38.527Z,101737.75
2022-10-17T00:32:06.130Z,101721.72
2022-10-17T00:34:33.079Z,101726.66
2022-10-17T00:36:59.866Z,101727.09
2022-10-17T00:39:26.751Z,101727.97
2022-10-17T00:41:53.708Z,101733.19
2022-10-17T00:45:09.571Z,101721.75
2022-10-17T00:47:38.056Z,101721.19
2022-10-17T00:50:07.601Z,101718.09
2022-10-17T00:52:34.253Z,101714.56
2022-10-17T00:55:04.600Z,101707.50
2022-10-17T00:57:32.755Z,101699.50
2022-10-17T01:00:03.087Z,101697.25
2022-10-17T01:02:30.357Z,101700.44
2022-10-17T01:04:59.656Z,101693.91
2022-10-17T01:07:30.820Z,101700.00
2022-10-17T01:10:00.350Z,101694.22
2022-10-17T01:12:37.974Z,101678.50
2022-10-17T01:15:14.058Z,101680.13
2022-10-17T01:17:52.904Z,101673.81
2022-10-17T01:21:05.286Z,101649.22
2022-10-17T01:23:56.372Z,101655.66
2022-10-17T01:26:36.863Z,101652.25
2022-10-17T01:29:32.625Z,101644.34
2022-10-17T01:32:04.712Z,101647.88
2022-10-17T01:34:36.416Z,101646.25
2022-10-17T01:37:06.811Z,101631.50
2022-10-17T01:39:43.945Z,101638.13
2022-10-17T01:42:19.309Z,101636.44
2022-10-17T01:44:50.145Z,101625.97
2022-10-17T01:47:21.859Z,101624.25
2022-10-17T01:49:53.759Z,101629.81
2022-10-17T01:52:24.734Z,101619.84
2022-10-17T01:54:55.177Z,101621.47
2022-10-17T01:57:40.003Z,101604.78
2022-10-17T02:00:12.586Z,101603.09
2022-10-17T02:02:46.922Z,101604.78
2022-10-17T02:05:19.057Z,101595.31
2022-10-17T02:07:45.859Z,101598.84
2022-10-17T02:10:19.552Z,101584.72
2022-10-17T02:12:53.779Z,101580.22
2022-10-17T02:15:34.047Z,101572.75
2022-10-17T02:18:16.508Z,101569.56
2022-10-17T02:20:51.805Z,101561.53
2022-10-17T02:23:24.188Z,101549.47
2022-10-17T02:25:57.237Z,101561.84
2022-10-17T02:28:31.575Z,101550.53
2022-10-17T02:31:03.057Z,101559.50
2022-10-17T02:33:35.527Z,101576.03
2022-10-17T02:36:07.313Z,101562.91
2022-10-17T02:38:35.658Z,101583.44
2022-10-17T02:41:03.797Z,101580.59
2022-10-17T02:43:31.297Z,101572.34
2022-10-17T02:45:59.266Z,101577.50
2022-10-17T02:48:31.039Z,101570.44
2022-10-17T02:51:07.153Z,101578.97
2022-10-17T02:53:39.249Z,101577.06
2022-10-17T02:56:10.754Z,101574.19
2022-10-17T02:58:39.590Z,101570.66
2022-10-17T03:01:07.316Z,101563.59
2022-10-17T03:03:35.226Z,101567.03
2022-10-17T03:06:03.869Z,101572.16
2022-10-17T03:08:30.748Z,101565.00
2022-10-17T03:10:57.609Z,101559.53
2022-10-17T03:13:26.682Z,101545.22
2022-10-17T03:15:53.550Z,101544.16
2022-10-17T03:18:20.382Z,101531.34
2022-10-17T03:20:49.364Z,101542.56
2022-10-17T03:23:18.058Z,101550.13
2022-10-17T03:25:46.039Z,101561.59
2022-10-17T03:28:14.639Z,101562.31
2022-10-17T03:30:41.339Z,101573.47
2022-10-17T03:33:08.655Z,101567.59
2022-10-17T03:35:39.096Z,101560.63
2022-10-17T03:38:07.117Z,101569.19
2022-10-17T03:40:35.367Z,101567.25
2022-10-17T03:43:02.162Z,101573.03
2022-10-17T03:45:30.097Z,101571.72
2022-10-17T03:47:58.580Z,101575.59
2022-10-17T03:50:25.960Z,101569.22
2022-10-17T03:52:53.180Z,101567.19
2022-10-17T03:55:20.058Z,101560.00
2022-10-17T03:57:48.769Z,101556.03
2022-10-17T04:00:18.711Z,101565.84
2022-10-17T04:02:54.360Z,101570.31
2022-10-17T04:05:21.119Z,101567.31
2022-10-17T04:07:48.274Z,101564.91
2022-10-17T04:10:17.278Z,101563.00
2022-10-17T04:12:44.185Z,101564.81
2022-10-17T04:15:13.348Z,101561.84
2022-10-17T04:17:40.395Z,101566.00
2022-10-17T04:20:08.508Z,101555.41
2022-10-17T04:22:35.260Z,101554.34
2022-10-17T04:25:03.517Z,101540.13
2022-10-17T04:27:35.692Z,101540.84
2022-10-17T04:30:02.557Z,101521.84
2022-10-17T04:32:36.754Z,101553.34
2022-10-17T04:35:17.609Z,101547.59
2022-10-17T04:37:49.791Z,101556.03
2022-10-17T04:40:18.527Z,101568.13
2022-10-17T04:42:45.912Z,101561.56
2022-10-17T04:45:16.448Z,101558.88
2022-10-17T04:47:45.085Z,101547.44
2022-10-17T04:50:11.954Z,101549.25
2022-10-17T04:52:40.588Z,101559.34
2022-10-17T04:55:09.354Z,101561.28
2022-10-17T04:57:36.395Z,101562.25
2022-10-17T05:00:17.467Z,101569.41
2022-10-17T05:03:04.492Z,101559.06
2022-10-17T05:05:31.751Z,101573.72
2022-10-17T05:08:02.883Z,101572.88
2022-10-17T05:10:36.507Z,101567.03
2022-10-17T05:13:04.753Z,101567.31
2022-10-17T05:15:33.199Z,101564.78
2022-10-17T05:18:01.447Z,101549.19
2022-10-17T05:20:30.974Z,101570.06
2022-10-17T05:22:59.598Z,101579.34
2022-10-17T05:25:30.537Z,101585.31
2022-10-17T05:27:57.327Z,101585.09
2022-10-17T05:30:24.114Z,101583.56
2022-10-17T05:32:55.993Z,101577.97
2022-10-17T05:35:22.982Z,101567.63
2022-10-17T05:37:51.268Z,101575.91
2022-10-17T05:40:19.769Z,101582.00
2022-10-17T05:42:47.829Z,101589.69
2022-10-17T05:45:16.306Z,101587.72
2022-10-17T05:47:43.337Z,101588.34
2022-10-17T05:50:10.423Z,101596.16
2022-10-17T05:52:56.468Z,101598.72
2022-10-17T05:55:23.627Z,101600.78
2022-10-17T05:57:52.907Z,101612.13
2022-10-17T06:00:21.582Z,101595.44
2022-10-17T06:02:55.837Z,101588.88
2022-10-17T06:05:24.149Z,101590.47
2022-10-17T06:07:52.659Z,101595.81
2022-10-17T06:10:22.068Z,101599.84
2022-10-17T06:12:49.099Z,101589.03
2022-10-17T06:15:16.086Z,101589.03
2022-10-17T06:17:47.835Z,101603.50
2022-10-17T06:20:14.800Z,101601.31
2022-10-17T06:22:41.677Z,101617.00
2022-10-17T06:25:15.097Z,101617.00
2022-10-17T06:27:43.846Z,101619.81
2022-10-17T06:30:12.053Z,101621.50
2022-10-17T06:32:39.084Z,101627.72
2022-10-17T06:35:07.267Z,101623.47
2022-10-17T06:37:36.681Z,101618.72
2022-10-17T06:40:10.519Z,101617.63
2022-10-17T06:42:38.951Z,101623.00
2022-10-17T06:45:24.991Z,101627.25
2022-10-17T06:48:15.655Z,101647.59
2022-10-17T06:50:44.061Z,101644.34
2022-10-17T06:53:15.886Z,101651.53
2022-10-17T06:56:03.214Z,101651.81
2022-10-17T06:58:50.865Z,101660.56
2022-10-17T07:01:35.478Z,101682.41
2022-10-17T07:04:04.205Z,101664.38
2022-10-17T07:06:31.935Z,101667.31
2022-10-17T07:09:06.792Z,101673.41
2022-10-17T07:11:36.427Z,101684.50
2022-10-17T07:14:03.646Z,101685.75
2022-10-17T07:16:30.459Z,101667.44
2022-10-17T07:19:19.029Z,101679.38
2022-10-17T07:21:45.942Z,101690.09
2022-10-17T07:24:13.147Z,101683.53
2022-10-17T07:26:43.724Z,101684.41
2022-10-17T07:29:11.019Z,101677.22
2022-10-17T07:31:48.768Z,101674.06
2022-10-17T07:34:15.753Z,101687.31
2022-10-17T07:36:45.955Z,101690.63
2022-10-17T07:39:14.852Z,101712.81
2022-10-17T07:41:42.079Z,101716.09
2022-10-17T07:44:09.203Z,101716.47
2022-10-17T07:46:42.536Z,101712.31
2022-10-17T07:49:09.541Z,101722.56
2022-10-17T07:51:36.629Z,101732.09
2022-10-17T07:54:06.700Z,101737.59
2022-10-17T07:56:33.526Z,101731.94
2022-10-17T07:59:02.658Z,101755.75
2022-10-17T08:01:32.046Z,101758.28
2022-10-17T08:03:58.808Z,101771.47
2022-10-17T08:06:25.735Z,101782.72
2022-10-17T08:08:52.675Z,101788.94
2022-10-17T08:11:22.916Z,101787.31
2022-10-17T08:13:49.748Z,101806.97
2022-10-17T08:16:16.528Z,101821.13
2022-10-17T08:18:44.228Z,101828.09
2022-10-17T08:21:13.437Z,101828.84
2022-10-17T08:23:40.677Z,101820.91
2022-10-17T08:26:10.881Z,101837.03
2022-10-17T08:28:40.618Z,101841.94
2022-10-17T08:31:09.990Z,101851.47
2022-10-17T08:33:37.148Z,101858.41
2022-10-17T08:36:04.727Z,101864.78
2022-10-17T08:38:35.448Z,101876.38
2022-10-17T08:41:05.291Z,101880.25
2022-10-17T08:43:54.114Z,101877.56
2022-10-17T08:46:21.256Z,101877.69
2022-10-17T08:48:53.175Z,101888.94
2022-10-17T08:51:23.327Z,101893.16
2022-10-17T08:53:53.992Z,101901.59
2022-10-17T08:56:44.067Z,101906.84
2022-10-17T08:59:18.165Z,101880.50
2022-10-17T09:01:50.406Z,101905.75
2022-10-17T09:04:41.705Z,101889.91
2022-10-17T09:07:19.636Z,101895.16
2022-10-17T09:09:57.992Z,101878.91
2022-10-17T09:12:39.088Z,101888.06
2022-10-17T09:15:39.907Z,101858.88
2022-10-17T09:18:12.765Z,101849.00
2022-10-17T09:20:45.109Z,101860.00
2022-10-17T09:23:16.605Z,101860.72
2022-10-17T09:25:45.891Z,101849.38
2022-10-17T09:28:17.515Z,101849.25
2022-10-17T09:30:47.557Z,101850.59
2022-10-17T09:33:34.395Z,101849.00
2022-10-17T09:36:12.339Z,101868.28
2022-10-17T09:38:46.771Z,101875.38
2022-10-17T09:41:43.012Z,101873.41
2022-10-17T09:44:18.474Z,101880.13
2022-10-17T09:46:59.943Z,101884.03
2022-10-17T09:49:32.637Z,101889.78
2022-10-17T09:52:00.528Z,101893.31
2022-10-17T09:54:36.338Z,101884.44
2022-10-17T09:57:05.662Z,101877.00
2022-10-17T09:59:34.787Z,101879.44
2022-10-17T10:02:18.714Z,101872.22
2022-10-17T10:05:04.327Z,101866.28
2022-10-17T10:07:34.737Z,101878.34
2022-10-17T10:10:03.088Z,101889.09
2022-10-17T10:12:32.855Z,101893.25
2022-10-17T10:15:00.559Z,101906.81
2022-10-17T10:17:35.443Z,101917.19
2022-10-17T10:20:04.660Z,101918.91
2022-10-17T10:22:31.977Z,101922.94
2022-10-17T10:25:13.585Z,101919.75
2022-10-17T10:27:42.352Z,101937.94
2022-10-17T10:30:18.186Z,101939.03
2022-10-17T10:32:49.255Z,101941.34
2022-10-17T10:35:21.919Z,101933.91
2022-10-17T10:37:51.832Z,101955.53
2022-10-17T10:40:21.304Z,101949.44
2022-10-17T10:42:51.129Z,101956.06
2022-10-17T10:45:42.765Z,101969.25
2022-10-17T10:48:21.391Z,101964.47
2022-10-17T10:50:51.003Z,101985.94
2022-10-17T10:53:34.788Z,101987.50
2022-10-17T10:56:08.302Z,101968.81
2022-10-17T10:58:43.598Z,101988.94
2022-10-17T11:01:15.087Z,101987.84
2022-10-17T11:03:56.139Z,102001.13
2022-10-17T11:06:27.548Z,102002.53
2022-10-17T11:09:05.601Z,102000.31
2022-10-17T11:11:39.192Z,102008.59
2022-10-17T11:14:13.867Z,102011.75
2022-10-17T11:16:47.680Z,102013.41
2022-10-17T11:19:24.679Z,102029.28
2022-10-17T11:22:02.605Z,102034.13
2022-10-17T11:24:35.932Z,102036.06
2022-10-17T11:27:06.810Z,102044.31
2022-10-17T11:29:41.705Z,102039.72
2022-10-17T11:32:13.595Z,102049.47
2022-10-17T11:34:47.813Z,102052.06
2022-10-17T11:37:19.348Z,102030.38
2022-10-17T11:39:52.163Z,102049.25
2022-10-17T11:42:22.713Z,102053.66
2022-10-17T11:44:56.262Z,102070.47
2022-10-17T11:47:32.763Z,102069.44
2022-10-17T11:52:58.874Z,102068.56
2022-10-17T11:55:28.257Z,102065.13
2022-10-17T11:58:03.532Z,102070.88
2022-10-17T12:00:42.164Z,102069.84
2022-10-17T12:03:35.278Z,102066.16
2022-10-17T12:06:13.623Z,102076.97
2022-10-17T12:08:50.297Z,102076.97
2022-10-17T12:11:34.765Z,102077.59
2022-10-17T12:14:05.760Z,102063.78
2022-10-17T12:19:30.870Z,102095.94
2022-10-17T12:22:03.799Z,102103.75
2022-10-17T12:24:42.747Z,102080.28
2022-10-17T12:27:43.552Z,102102.81
2022-10-17T12:30:24.805Z,102105.50
2022-10-17T12:33:08.168Z,102103.13
2022-10-17T12:35:37.307Z,102102.72
2022-10-17T12:38:29.544Z,102113.00
2022-10-17T12:41:06.649Z,102108.59
2022-10-17T12:43:57.665Z,102115.69
2022-10-17T12:46:57.588Z,102112.28
2022-10-17T12:49:40.959Z,102108.72
2022-10-17T12:52:27.496Z,102114.59
2022-10-17T12:55:12.721Z,102109.88
2022-10-17T12:57:48.282Z,102122.84
2022-10-17T13:00:20.806Z,102127.88
2022-10-17T13:02:49.909Z,102118.22
2022-10-17T13:05:27.581Z,102129.25
2022-10-17T13:07:55.753Z,102125.50
2022-10-17T13:10:28.066Z,102136.00
2022-10-17T13:13:04.535Z,102123.31
2022-10-17T13:15:31.855Z,102135.53
2022-10-17T13:18:00.486Z,102147.31
2022-10-17T13:20:31.455Z,102141.94
2022-10-17T13:22:59.139Z,102141.94
2022-10-17T13:25:28.321Z,102145.38
2022-10-17T13:28:12.645Z,102149.63
2022-10-17T13:30:39.725Z,102136.28
2022-10-17T13:33:27.434Z,102149.41
2022-10-17T13:36:01.666Z,102155.38
2022-10-17T13:38:32.434Z,102149.25
2022-10-17T13:41:30.173Z,102157.53
2022-10-17T13:43:50.496Z,102153.34
2022-10-17T13:46:37.443Z,102148.22
2022-10-17T13:49:11.719Z,102154.56
2022-10-17T13:51:44.338Z,102158.72
2022-10-17T13:54:19.704Z,102155.94
2022-10-17T13:59:30.547Z,102159.53
2022-10-17T14:01:57.587Z,102162.97
2022-10-17T14:04:24.376Z,102165.53
2022-10-17T14:06:52.321Z,102164.22
2022-10-17T14:09:23.505Z,102162.03
2022-10-17T14:12:01.557Z,102172.03
2022-10-17T14:14:30.412Z,102178.13
2022-10-17T14:17:13.425Z,102173.00
2022-10-17T14:19:40.599Z,102185.00
2022-10-17T14:22:24.529Z,102186.09
2022-10-17T14:24:53.465Z,102188.00
2022-10-17T14:27:30.632Z,102190.59
2022-10-17T14:30:02.903Z,102200.50
2022-10-17T14:35:30.163Z,102186.22
2022-10-17T14:37:57.285Z,102196.66
2022-10-17T14:40:26.066Z,102214.25
2022-10-17T14:42:56.037Z,102205.03
2022-10-17T14:45:27.876Z,102197.22
2022-10-17T14:48:00.815Z,102218.59
2022-10-17T14:50:30.213Z,102221.41
2022-10-17T14:53:01.391Z,102216.03
2022-10-17T14:55:30.354Z,102222.25
2022-10-17T14:57:59.047Z,102215.16
2022-10-17T15:00:26.471Z,102226.78
2022-10-17T15:02:55.124Z,102228.72
2022-10-17T15:05:23.536Z,102247.53
2022-10-17T15:07:50.732Z,102250.22
2022-10-17T15:10:33.991Z,102239.69
2022-10-17T15:13:27.653Z,102241.41
2022-10-17T15:15:52.497Z,102243.22
2022-10-17T15:18:19.548Z,102249.13
2022-10-17T15:20:46.376Z,102247.41
2022-10-17T15:23:13.271Z,102241.28
2022-10-17T15:25:40.138Z,102248.28
2022-10-17T15:28:10.928Z,102251.28
2022-10-17T15:30:37.939Z,102262.78
2022-10-17T15:33:04.978Z,102251.97
2022-10-17T15:35:31.930Z,102259.94
2022-10-17T15:37:59.141Z,102262.06
2022-10-17T15:40:28.942Z,102256.94
2022-10-17T15:42:59.065Z,102259.34
2022-10-17T15:45:27.328Z,102260.50
2022-10-17T15:47:57.182Z,102263.66
2022-10-17T15:50:23.977Z,102269.97
2022-10-17T15:52:51.123Z,102271.94
2022-10-17T15:55:19.424Z,102259.69
2022-10-17T15:57:48.305Z,102276.97
2022-10-17T16:00:17.557Z,102273.78
2022-10-17T16:02:46.715Z,102260.03
2022-10-17T16:05:17.446Z,102231.81
2022-10-17T16:07:46.891Z,102275.47
2022-10-17T16:10:14.238Z,102281.28
2022-10-17T16:12:42.694Z,102279.78
2022-10-17T16:15:14.309Z,102278.41
2022-10-17T16:17:41.575Z,102283.44
2022-10-17T16:20:10.863Z,102290.50
2022-10-17T16:22:37.933Z,102308.66
2022-10-17T16:25:10.295Z,102292.88
2022-10-17T16:27:37.913Z,102298.44
2022-10-17T16:30:06.739Z,102288.13
2022-10-17T16:32:34.173Z,102287.28
2022-10-17T16:35:01.575Z,102291.13
2022-10-17T16:37:29.761Z,102297.56
2022-10-17T16:39:56.508Z,102302.81
2022-10-17T16:42:23.528Z,102290.69
2022-10-17T16:44:50.697Z,102295.84
2022-10-17T16:47:18.805Z,102295.31
2022-10-17T16:49:45.820Z,102307.06
2022-10-17T16:52:12.645Z,102304.94
2022-10-17T16:54:40.830Z,102316.41
2022-10-17T16:57:08.120Z,102319.28
2022-10-17T16:59:34.954Z,102322.19
2022-10-17T17:02:01.733Z,102326.69
2022-10-17T17:04:28.816Z,102338.28
2022-10-17T17:06:55.558Z,102342.13
2022-10-17T17:09:22.387Z,102337.16
2022-10-17T17:11:50.548Z,102341.97
2022-10-17T17:14:17.267Z,102342.06
2022-10-17T17:16:44.353Z,102355.78
2022-10-17T17:19:13.748Z,102360.59
2022-10-17T17:21:43.217Z,102363.47
2022-10-17T17:24:10.004Z,102360.25
2022-10-17T17:26:36.784Z,102347.63
2022-10-17T17:29:05.389Z,102360.81
2022-10-17T17:31:35.206Z,102364.88
2022-10-17T17:34:02.920Z,102355.84
2022-10-17T17:36:32.910Z,102366.38
2022-10-17T17:39:02.545Z,102339.91
2022-10-17T17:41:29.884Z,102373.47
2022-10-17T17:43:57.133Z,102385.13
2022-10-17T17:46:25.951Z,102378.16
2022-10-17T17:48:54.241Z,102368.91
2022-10-17T17:51:29.377Z,102379.41
2022-10-17T17:53:56.666Z,102392.91
2022-10-17T17:56:24.968Z,102399.31
2022-10-17T17:58:55.408Z,102396.72
2022-10-17T18:01:25.791Z,102398.84
2022-10-17T18:03:56.202Z,102392.63
2022-10-17T18:06:23.572Z,102385.16
2022-10-17T18:08:52.107Z,102413.31
2022-10-17T18:11:21.930Z,102430.50
2022-10-17T18:13:54.129Z,102433.47
2022-10-17T18:16:21.342Z,102400.53
2022-10-17T18:18:49.928Z,102415.19
2022-10-17T18:21:16.928Z,102418.81
2022-10-17T18:23:46.048Z,102410.41
2022-10-17T18:26:14.630Z,102434.38
2022-10-17T18:28:42.925Z,102443.56
2022-10-17T18:31:11.451Z,102435.44
2022-10-17T18:33:39.362Z,102440.81
2022-10-17T18:36:09.697Z,102432.56
2022-10-17T18:38:37.283Z,102438.13
2022-10-17T18:41:06.227Z,102434.31
2022-10-17T18:43:35.138Z,102436.88
2022-10-17T18:46:04.683Z,102444.03
2022-10-17T18:48:32.647Z,102454.00
2022-10-17T18:50:59.675Z,102442.53
2022-10-17T18:53:28.156Z,102453.06
2022-10-17T18:55:55.292Z,102457.53
2022-10-17T18:58:22.962Z,102453.25
2022-10-17T19:00:50.820Z,102462.03
2022-10-17T19:03:18.634Z,102464.78
2022-10-17T19:05:46.296Z,102471.13
2022-10-17T19:08:13.714Z,102474.81
2022-10-17T19:10:42.807Z,102472.25
2022-10-17T19:13:10.429Z,102467.09
2022-10-17T19:15:37.417Z,102468.63
2022-10-17T19:18:04.964Z,102474.38
2022-10-17T19:20:31.996Z,102478.84
2022-10-17T19:22:59.348Z,102482.56
2022-10-17T19:25:26.232Z,102477.88
2022-10-17T19:27:54.764Z,102490.47
2022-10-17T19:30:21.649Z,102502.53
2022-10-17T19:32:48.623Z,102500.03
2022-10-17T19:35:15.861Z,102502.91
2022-10-17T19:37:42.710Z,102501.16
2022-10-17T19:40:10.883Z,102507.56
2022-10-17T19:42:37.835Z,102507.75
2022-10-17T19:45:08.310Z,102513.19
2022-10-17T19:47:35.307Z,102513.19
2022-10-17T19:52:34.385Z,102530.41
2022-10-17T19:55:01.963Z,102526.25
2022-10-17T19:57:28.821Z,102530.75
2022-10-17T19:59:56.211Z,102515.91
2022-10-17T20:02:24.571Z,102523.66
2022-10-17T20:05:06.277Z,102522.63
2022-10-17T20:07:38.270Z,102528.34
2022-10-17T20:10:05.846Z,102541.53
2022-10-17T20:12:33.299Z,102539.91
2022-10-17T20:15:00.409Z,102535.41
2022-10-17T20:17:28.787Z,102542.41
2022-10-17T20:19:55.667Z,102537.22
2022-10-17T20:22:22.542Z,102541.03
2022-10-17T20:24:49.393Z,102548.09
2022-10-17T20:27:16.273Z,102547.25
2022-10-17T20:29:43.603Z,102556.31
2022-10-17T20:32:10.498Z,102555.44
2022-10-17T20:34:39.384Z,102552.34
2022-10-17T20:37:06.309Z,102552.78
2022-10-17T20:39:33.253Z,102567.19
2022-10-17T20:42:00.223Z,102564.06
2022-10-17T20:44:27.041Z,102587.91
2022-10-17T20:47:01.771Z,102587.91
2022-10-17T20:49:30.506Z,102589.59
2022-10-17T20:51:59.100Z,102593.16
2022-10-17T20:54:27.837Z,102596.69
2022-10-17T20:56:55.141Z,102599.47
2022-10-17T20:59:22.141Z,102603.44
2022-10-17T21:01:49.063Z,102594.19
2022-10-17T21:04:44.005Z,102581.53
2022-10-17T21:07:04.690Z,102587.63
2022-10-17T21:09:31.645Z,102596.41
2022-10-17T21:11:58.802Z,102596.69
2022-10-17T21:14:25.997Z,102602.63
2022-10-17T21:16:52.850Z,102604.84
2022-10-17T21:19:20.027Z,102590.91
2022-10-17T21:21:47.262Z,102607.50
2022-10-17T21:24:18.141Z,102626.50
2022-10-17T21:26:46.625Z,102624.72
2022-10-17T21:29:14.391Z,102620.75
2022-10-17T21:31:43.558Z,102627.34
2022-10-17T21:34:13.467Z,102622.88
2022-10-17T21:36:40.758Z,102615.41
2022-10-17T21:41:36.239Z,102611.81
2022-10-17T21:44:05.198Z,102628.78
2022-10-17T21:46:33.246Z,102634.38
2022-10-17T21:49:00.789Z,102629.97
2022-10-17T21:51:28.358Z,102617.38
2022-10-17T21:53:57.009Z,102629.16
2022-10-17T21:56:29.179Z,102633.16
2022-10-17T21:58:58.525Z,102636.78
2022-10-17T22:01:26.831Z,102639.69
2022-10-17T22:03:56.333Z,102647.00
2022-10-17T22:06:39.170Z,102658.31
2022-10-17T22:09:09.499Z,102646.75
2022-10-17T22:11:36.438Z,102650.19
2022-10-17T22:14:06.468Z,102602.72
2022-10-17T22:16:36.166Z,102637.44
2022-10-17T22:19:07.371Z,102651.25
2022-10-17T22:21:36.670Z,102654.84
2022-10-17T22:24:06.037Z,102654.84
2022-10-17T22:26:34.709Z,102643.53
2022-10-17T22:29:05.184Z,102647.97
2022-10-17T22:31:32.320Z,102652.44
2022-10-17T22:33:59.215Z,102650.78
2022-10-17T22:36:26.149Z,102658.16
2022-10-17T22:38:53.161Z,102650.63
2022-10-17T22:41:20.271Z,102658.66
2022-10-17T22:43:47.389Z,102661.09
2022-10-17T22:46:19.008Z,102662.47
2022-10-17T22:48:46.113Z,102659.91
2022-10-17T22:51:13.276Z,102653.53
2022-10-17T22:53:40.256Z,102654.41
2022-10-17T22:56:09.837Z,102659.75
2022-10-17T22:58:37.213Z,102650.53
2022-10-17T23:01:06.347Z,102665.31
2022-10-17T23:03:35.289Z,102661.94
2022-10-17T23:06:02.961Z,102672.41
2022-10-17T23:08:30.437Z,102659.59
2022-10-17T23:10:57.753Z,102669.13
2022-10-17T23:13:24.572Z,102674.84
2022-10-17T23:15:53.482Z,102663.66
2022-10-17T23:18:21.051Z,102660.13
2022-10-17T23:20:49.954Z,102659.75
2022-10-17T23:23:17.816Z,102661.16
2022-10-17T23:25:44.689Z,102670.81
2022-10-17T23:28:12.317Z,102618.75
2022-10-17T23:30:40.124Z,102673.75
2022-10-17T23:33:07.607Z,102632.03
2022-10-17T23:35:35.474Z,102647.31
2022-10-17T23:38:04.530Z,102651.13
2022-10-17T23:40:31.405Z,102643.88
2022-10-17T23:42:58.254Z,102652.06
2022-10-17T23:45:25.063Z,102660.38
2022-10-17T23:47:51.924Z,102666.66
2022-10-17T23:50:18.973Z,102659.72
2022-10-17T23:52:45.791Z,102663.97
2022-10-17T23:55:13.982Z,102668.25
2022-10-17T23:57:40.827Z,102642.38
